Main page
METAR-TAF:

METAR-TAF

Airports :

Leonardo da Vinci–Fiumicino Airport

Rome-Fiumicino, Italy

latitude: 41-48N, longitude: 012-14E, elevation: 2 m

Current weather observation

The report was made 22 minutes ago, at 18:50 UTC
Wind 10 kt from the South
Temperature 14°C
Humidity 82%
Pressure 1008 hPa
Visibility 10 km or more
Scattered clouds at a height of 1200 ft

METAR: LIRF 281850Z 17010KT 9999 SCT012 14/11 Q1008 NOSIG

Time: 20:12 (19:12 UTC)

Forecast

The report was made 2 hours and 12 minutes ago, at 17:00 UTC
Forecast valid from 28 at 18 UTC to 29 at 24 UTC
Wind 14 kt from the East/Northeast
Visibility 10 km or more
Scattered clouds at a height of 3000 ft
Probability 40% :
Temporary
from 28 at 20 UTC to 28 at 24 UTC
rain showers
Temporary
from 29 at 00 UTC to 29 at 06 UTC
Visibility: 4000 m
thunderstorm, rain
Becoming
from 29 at 01 UTC to 29 at 03 UTC
Wind 13 kt from the East/Southeast

TAF: LIRF 281700Z 2818/2924 06014KT 9999 SCT030 PROB40 TEMPO 2820/2824 SHRA TEMPO 2900/2906 4000 TSRA BECMG 2901/2903 12013KT

Weather observations and forecasts of more than 4000 airports (METAR and TAF reports).

The available stations are represented by yellow and red dots on the map.

Hover mouse over dot to see the name of the station.

Then click to see weather observations and forecasts.

To change the map : click on the green buttons with a black cross to zoom in, on the green button with a dash to zoom out, or on the green arrows for adjacent maps.


METAR-TAF: